Decoded Metar for VVNB (HANOI in VIET NAM) (IATA:HAN) | Meteo·Mobile Aviation Weather
aviador You're here:

VVNB Decoded Metar

HANOI in VIET NAM
Report Time2019-10-22 14:00:00
UTC Time2019-10-22 14:33:53
Flight Rules vfr VFR
Wind140° at 08 kt
W.Decomp.*RWY 11: 6.9 kt HW 4.1 kt RCW
Visibility9999 m
Phenomena:N/A
Clouds:Broken 049 Hf
Expected CloudBase > 1,200 ft AGL from Temp-Dew spread
Ceiling4,900 ft
Temp27°C (ISA +12)
Dew Point24°C (84% RH)
Heat Index30.1°C
QNH1008 hPa
Density Alt1,969 ft
Elevation20 ft
Report Wrong Elevation
Raw Report
VVNB 221400Z 14008KT 9999 BKN049 27/24 Q1008 NOSIG=

Extra information for VVNB:More info

Metar Taf Metar & Taf Last 4 Metars F.Rules Stats Wind Profile Meteogram Temp Stats Airport Information Weather charts Add Link Nearby VenuesMetar ALERT Operation Metar Decoded Social comments